sensor_id;sensor_type;location;lat;lon;timestamp;P1;durP1;ratioP1;P2;durP2;ratioP2
70297;SDS011;57702;44.420;20.298;2023-03-01T00:02:08;49.28;;;11.38;;
70297;SDS011;57702;44.420;20.298;2023-03-01T00:04:35;52.50;;;14.00;;
70297;SDS011;57702;44.420;20.298;2023-03-01T00:07:01;21.55;;;11.25;;
70297;SDS011;57702;44.420;20.298;2023-03-01T00:09:27;46.50;;;11.13;;
70297;SDS011;57702;44.420;20.298;2023-03-01T00:11:54;14.57;;;7.43;;
70297;SDS011;57702;44.420;20.298;2023-03-01T00:14:20;12.82;;;6.82;;
70297;SDS011;57702;44.420;20.298;2023-03-01T00:16:46;14.38;;;6.70;;
70297;SDS011;57702;44.420;20.298;2023-03-01T00:19:13;20.77;;;7.78;;
70297;SDS011;57702;44.420;20.298;2023-03-01T00:21:40;19.02;;;7.80;;
70297;SDS011;57702;44.420;20.298;2023-03-01T00:24:06;19.67;;;7.45;;
70297;SDS011;57702;44.420;20.298;2023-03-01T00:26:33;31.92;;;12.57;;
70297;SDS011;57702;44.420;20.298;2023-03-01T00:28:59;17.25;;;10.38;;
70297;SDS011;57702;44.420;20.298;2023-03-01T00:31:29;35.85;;;8.65;;
70297;SDS011;57702;44.420;20.298;2023-03-01T00:33:57;20.40;;;8.27;;
70297;SDS011;57702;44.420;20.298;2023-03-01T00:36:31;21.52;;;10.00;;
70297;SDS011;57702;44.420;20.298;2023-03-01T00:38:57;22.27;;;7.18;;
70297;SDS011;57702;44.420;20.298;2023-03-01T00:41:24;19.10;;;7.85;;
70297;SDS011;57702;44.420;20.298;2023-03-01T00:43:52;21.63;;;9.80;;
70297;SDS011;57702;44.420;20.298;2023-03-01T00:46:19;28.65;;;11.27;;
70297;SDS011;57702;44.420;20.298;2023-03-01T00:48:45;18.98;;;9.40;;
70297;SDS011;57702;44.420;20.298;2023-03-01T00:51:13;24.58;;;10.95;;
70297;SDS011;57702;44.420;20.298;2023-03-01T00:53:40;22.73;;;8.77;;
70297;SDS011;57702;44.420;20.298;2023-03-01T00:56:07;21.15;;;7.68;;
70297;SDS011;57702;44.420;20.298;2023-03-01T00:58:34;25.45;;;11.75;;
70297;SDS011;57702;44.420;20.298;2023-03-01T01:01:00;19.38;;;6.82;;
70297;SDS011;57702;44.420;20.298;2023-03-01T01:03:27;18.95;;;8.88;;
70297;SDS011;57702;44.420;20.298;2023-03-01T01:05:53;20.23;;;7.32;;
70297;SDS011;57702;44.420;20.298;2023-03-01T01:08:20;39.33;;;10.38;;
70297;SDS011;57702;44.420;20.298;2023-03-01T01:10:46;22.10;;;6.63;;
70297;SDS011;57702;44.420;20.298;2023-03-01T01:13:13;22.80;;;8.35;;
70297;SDS011;57702;44.420;20.298;2023-03-01T01:15:39;25.55;;;8.95;;
70297;SDS011;57702;44.420;20.298;2023-03-01T01:18:06;23.23;;;8.68;;
70297;SDS011;57702;44.420;20.298;2023-03-01T01:20:32;11.70;;;6.88;;
70297;SDS011;57702;44.420;20.298;2023-03-01T01:22:58;22.23;;;8.07;;
70297;SDS011;57702;44.420;20.298;2023-03-01T01:25:24;22.95;;;7.50;;
70297;SDS011;57702;44.420;20.298;2023-03-01T01:27:51;31.27;;;12.07;;
70297;SDS011;57702;44.420;20.298;2023-03-01T01:30:17;34.67;;;7.28;;
70297;SDS011;57702;44.420;20.298;2023-03-01T01:32:43;24.83;;;10.32;;
70297;SDS011;57702;44.420;20.298;2023-03-01T01:35:09;10.77;;;7.68;;
70297;SDS011;57702;44.420;20.298;2023-03-01T01:37:36;21.77;;;7.32;;
70297;SDS011;57702;44.420;20.298;2023-03-01T01:40:02;22.98;;;9.40;;
70297;SDS011;57702;44.420;20.298;2023-03-01T01:42:29;13.70;;;6.20;;
70297;SDS011;57702;44.420;20.298;2023-03-01T01:47:40;21.92;;;6.32;;
70297;SDS011;57702;44.420;20.298;2023-03-01T01:50:08;21.67;;;7.45;;
70297;SDS011;57702;44.420;20.298;2023-03-01T01:52:35;20.17;;;7.47;;
70297;SDS011;57702;44.420;20.298;2023-03-01T01:55:07;10.30;;;6.28;;
70297;SDS011;57702;44.420;20.298;2023-03-01T02:00:05;19.02;;;8.93;;
70297;SDS011;57702;44.420;20.298;2023-03-01T02:02:32;28.40;;;8.60;;
70297;SDS011;57702;44.420;20.298;2023-03-01T02:05:01;16.00;;;9.30;;
70297;SDS011;57702;44.420;20.298;2023-03-01T02:07:29;21.75;;;7.43;;
70297;SDS011;57702;44.420;20.298;2023-03-01T02:09:56;35.38;;;11.82;;
70297;SDS011;57702;44.420;20.298;2023-03-01T02:12:23;17.52;;;6.03;;
70297;SDS011;57702;44.420;20.298;2023-03-01T02:14:49;17.33;;;6.82;;
70297;SDS011;57702;44.420;20.298;2023-03-01T02:17:16;13.52;;;7.28;;
70297;SDS011;57702;44.420;20.298;2023-03-01T02:19:47;26.02;;;9.15;;
70297;SDS011;57702;44.420;20.298;2023-03-01T02:30:20;17.38;;;8.18;;
70297;SDS011;57702;44.420;20.298;2023-03-01T02:32:47;7.80;;;4.45;;
70297;SDS011;57702;44.420;20.298;2023-03-01T02:35:14;11.80;;;5.10;;
70297;SDS011;57702;44.420;20.298;2023-03-01T02:37:42;6.40;;;5.28;;
70297;SDS011;57702;44.420;20.298;2023-03-01T02:40:13;12.18;;;6.25;;
70297;SDS011;57702;44.420;20.298;2023-03-01T02:42:52;6.50;;;5.00;;
70297;SDS011;57702;44.420;20.298;2023-03-01T02:45:19;19.35;;;6.30;;
70297;SDS011;57702;44.420;20.298;2023-03-01T02:47:46;11.23;;;6.35;;
70297;SDS011;57702;44.420;20.298;2023-03-01T02:50:19;7.80;;;5.20;;
70297;SDS011;57702;44.420;20.298;2023-03-01T02:53:35;10.95;;;6.28;;
70297;SDS011;57702;44.420;20.298;2023-03-01T02:55:35;13.30;;;5.95;;
70297;SDS011;57702;44.420;20.298;2023-03-01T02:58:02;22.40;;;4.90;;
70297;SDS011;57702;44.420;20.298;2023-03-01T03:00:29;10.30;;;5.75;;
70297;SDS011;57702;44.420;20.298;2023-03-01T03:02:58;14.60;;;5.85;;
70297;SDS011;57702;44.420;20.298;2023-03-01T03:05:28;7.15;;;6.25;;
70297;SDS011;57702;44.420;20.298;2023-03-01T03:07:58;4.60;;;4.00;;
70297;SDS011;57702;44.420;20.298;2023-03-01T03:10:26;6.70;;;4.13;;
70297;SDS011;57702;44.420;20.298;2023-03-01T03:12:54;7.97;;;5.78;;
70297;SDS011;57702;44.420;20.298;2023-03-01T03:15:21;26.02;;;8.07;;
70297;SDS011;57702;44.420;20.298;2023-03-01T03:17:47;10.07;;;4.72;;
70297;SDS011;57702;44.420;20.298;2023-03-01T03:20:15;12.57;;;5.13;;
70297;SDS011;57702;44.420;20.298;2023-03-01T03:22:44;11.60;;;6.80;;
70297;SDS011;57702;44.420;20.298;2023-03-01T03:25:11;10.90;;;5.60;;
70297;SDS011;57702;44.420;20.298;2023-03-01T03:27:37;22.33;;;7.18;;
70297;SDS011;57702;44.420;20.298;2023-03-01T03:30:05;16.50;;;5.55;;
70297;SDS011;57702;44.420;20.298;2023-03-01T03:32:38;9.52;;;5.50;;
70297;SDS011;57702;44.420;20.298;2023-03-01T03:35:05;12.18;;;6.78;;
70297;SDS011;57702;44.420;20.298;2023-03-01T03:37:38;11.13;;;5.57;;
70297;SDS011;57702;44.420;20.298;2023-03-01T03:40:23;17.80;;;6.22;;
70297;SDS011;57702;44.420;20.298;2023-03-01T03:42:49;7.45;;;4.88;;
70297;SDS011;57702;44.420;20.298;2023-03-01T03:45:16;11.38;;;4.28;;
70297;SDS011;57702;44.420;20.298;2023-03-01T03:47:42;16.65;;;5.38;;
70297;SDS011;57702;44.420;20.298;2023-03-01T03:50:13;26.08;;;4.72;;
70297;SDS011;57702;44.420;20.298;2023-03-01T03:52:39;11.40;;;6.57;;
70297;SDS011;57702;44.420;20.298;2023-03-01T03:55:06;16.23;;;7.35;;
70297;SDS011;57702;44.420;20.298;2023-03-01T03:57:36;26.98;;;10.57;;
70297;SDS011;57702;44.420;20.298;2023-03-01T04:00:03;13.20;;;6.97;;
70297;SDS011;57702;44.420;20.298;2023-03-01T04:02:30;12.00;;;5.78;;
70297;SDS011;57702;44.420;20.298;2023-03-01T04:04:56;25.00;;;5.18;;
70297;SDS011;57702;44.420;20.298;2023-03-01T04:07:23;21.95;;;9.52;;
70297;SDS011;57702;44.420;20.298;2023-03-01T04:09:49;33.38;;;10.88;;
70297;SDS011;57702;44.420;20.298;2023-03-01T04:12:15;10.35;;;6.93;;
70297;SDS011;57702;44.420;20.298;2023-03-01T04:14:45;18.77;;;8.45;;
70297;SDS011;57702;44.420;20.298;2023-03-01T04:17:11;16.92;;;8.63;;
70297;SDS011;57702;44.420;20.298;2023-03-01T04:19:37;16.02;;;7.03;;
70297;SDS011;57702;44.420;20.298;2023-03-01T04:22:03;9.55;;;6.78;;
70297;SDS011;57702;44.420;20.298;2023-03-01T04:24:37;14.32;;;6.85;;
70297;SDS011;57702;44.420;20.298;2023-03-01T04:27:03;13.13;;;6.53;;
70297;SDS011;57702;44.420;20.298;2023-03-01T04:29:29;12.77;;;5.28;;
70297;SDS011;57702;44.420;20.298;2023-03-01T04:31:55;9.68;;;6.03;;
70297;SDS011;57702;44.420;20.298;2023-03-01T04:34:21;10.18;;;5.75;;
70297;SDS011;57702;44.420;20.298;2023-03-01T04:36:48;14.63;;;5.22;;
70297;SDS011;57702;44.420;20.298;2023-03-01T04:39:14;9.35;;;4.30;;
70297;SDS011;57702;44.420;20.298;2023-03-01T04:41:40;8.30;;;3.15;;
70297;SDS011;57702;44.420;20.298;2023-03-01T04:44:08;5.50;;;4.57;;
70297;SDS011;57702;44.420;20.298;2023-03-01T04:46:34;10.25;;;5.68;;
70297;SDS011;57702;44.420;20.298;2023-03-01T04:49:01;5.25;;;3.33;;
70297;SDS011;57702;44.420;20.298;2023-03-01T04:51:27;7.45;;;3.72;;
70297;SDS011;57702;44.420;20.298;2023-03-01T04:53:53;8.05;;;3.22;;
70297;SDS011;57702;44.420;20.298;2023-03-01T04:56:20;12.30;;;5.10;;
70297;SDS011;57702;44.420;20.298;2023-03-01T04:58:48;9.38;;;6.03;;
70297;SDS011;57702;44.420;20.298;2023-03-01T05:01:18;48.42;;;7.68;;
70297;SDS011;57702;44.420;20.298;2023-03-01T05:03:46;21.17;;;7.65;;
70297;SDS011;57702;44.420;20.298;2023-03-01T05:06:12;67.28;;;15.85;;
70297;SDS011;57702;44.420;20.298;2023-03-01T05:08:39;20.85;;;10.05;;
70297;SDS011;57702;44.420;20.298;2023-03-01T05:11:06;14.23;;;7.20;;
70297;SDS011;57702;44.420;20.298;2023-03-01T05:13:34;12.43;;;5.55;;
70297;SDS011;57702;44.420;20.298;2023-03-01T05:16:01;7.50;;;4.82;;
70297;SDS011;57702;44.420;20.298;2023-03-01T05:18:28;12.38;;;5.28;;
70297;SDS011;57702;44.420;20.298;2023-03-01T05:21:01;33.75;;;8.65;;
70297;SDS011;57702;44.420;20.298;2023-03-01T05:23:29;19.60;;;6.65;;
70297;SDS011;57702;44.420;20.298;2023-03-01T05:25:59;8.85;;;4.78;;
70297;SDS011;57702;44.420;20.298;2023-03-01T05:28:25;20.52;;;5.80;;
70297;SDS011;57702;44.420;20.298;2023-03-01T05:30:53;68.30;;;18.60;;
70297;SDS011;57702;44.420;20.298;2023-03-01T05:33:19;14.45;;;12.00;;
70297;SDS011;57702;44.420;20.298;2023-03-01T05:35:47;14.05;;;7.55;;
70297;SDS011;57702;44.420;20.298;2023-03-01T05:38:13;4.75;;;4.35;;
70297;SDS011;57702;44.420;20.298;2023-03-01T05:40:40;28.67;;;8.65;;
70297;SDS011;57702;44.420;20.298;2023-03-01T05:43:06;8.65;;;7.10;;
70297;SDS011;57702;44.420;20.298;2023-03-01T05:45:33;22.75;;;5.35;;
70297;SDS011;57702;44.420;20.298;2023-03-01T05:48:01;24.05;;;4.93;;
70297;SDS011;57702;44.420;20.298;2023-03-01T05:50:28;9.23;;;6.07;;
70297;SDS011;57702;44.420;20.298;2023-03-01T05:53:02;32.30;;;6.03;;
70297;SDS011;57702;44.420;20.298;2023-03-01T05:55:30;4.38;;;3.88;;
70297;SDS011;57702;44.420;20.298;2023-03-01T05:58:00;11.15;;;5.40;;
70297;SDS011;57702;44.420;20.298;2023-03-01T06:00:27;23.48;;;7.75;;
70297;SDS011;57702;44.420;20.298;2023-03-01T06:02:54;7.35;;;5.22;;
70297;SDS011;57702;44.420;20.298;2023-03-01T06:05:20;15.60;;;5.60;;
70297;SDS011;57702;44.420;20.298;2023-03-01T06:07:47;20.58;;;8.07;;
70297;SDS011;57702;44.420;20.298;2023-03-01T06:10:13;9.45;;;5.55;;
70297;SDS011;57702;44.420;20.298;2023-03-01T06:12:40;3.38;;;2.22;;
70297;SDS011;57702;44.420;20.298;2023-03-01T06:15:07;9.82;;;5.00;;
70297;SDS011;57702;44.420;20.298;2023-03-01T06:17:37;18.00;;;7.47;;
70297;SDS011;57702;44.420;20.298;2023-03-01T06:20:09;15.55;;;4.97;;
70297;SDS011;57702;44.420;20.298;2023-03-01T06:22:35;9.13;;;6.05;;
70297;SDS011;57702;44.420;20.298;2023-03-01T06:25:02;13.07;;;7.30;;
70297;SDS011;57702;44.420;20.298;2023-03-01T06:27:28;17.48;;;7.03;;
70297;SDS011;57702;44.420;20.298;2023-03-01T06:29:54;15.90;;;7.63;;
70297;SDS011;57702;44.420;20.298;2023-03-01T06:32:20;34.58;;;7.72;;
70297;SDS011;57702;44.420;20.298;2023-03-01T06:34:47;17.73;;;7.07;;
70297;SDS011;57702;44.420;20.298;2023-03-01T06:37:13;20.25;;;8.73;;
70297;SDS011;57702;44.420;20.298;2023-03-01T06:39:39;23.92;;;7.63;;
70297;SDS011;57702;44.420;20.298;2023-03-01T06:42:06;15.07;;;7.63;;
70297;SDS011;57702;44.420;20.298;2023-03-01T06:44:33;20.88;;;7.40;;
70297;SDS011;57702;44.420;20.298;2023-03-01T06:46:59;16.52;;;5.35;;
70297;SDS011;57702;44.420;20.298;2023-03-01T06:49:25;19.50;;;5.05;;
70297;SDS011;57702;44.420;20.298;2023-03-01T06:51:52;45.40;;;11.32;;
70297;SDS011;57702;44.420;20.298;2023-03-01T06:54:18;15.30;;;7.90;;
70297;SDS011;57702;44.420;20.298;2023-03-01T06:56:47;20.92;;;7.45;;
70297;SDS011;57702;44.420;20.298;2023-03-01T06:59:13;12.45;;;7.43;;
70297;SDS011;57702;44.420;20.298;2023-03-01T07:01:40;26.17;;;8.93;;
70297;SDS011;57702;44.420;20.298;2023-03-01T07:04:06;15.60;;;7.15;;
70297;SDS011;57702;44.420;20.298;2023-03-01T07:06:32;21.70;;;7.95;;
70297;SDS011;57702;44.420;20.298;2023-03-01T07:08:59;13.75;;;6.32;;
70297;SDS011;57702;44.420;20.298;2023-03-01T07:11:25;17.20;;;6.13;;
70297;SDS011;57702;44.420;20.298;2023-03-01T07:13:51;16.95;;;8.73;;
70297;SDS011;57702;44.420;20.298;2023-03-01T07:16:17;21.23;;;8.65;;
70297;SDS011;57702;44.420;20.298;2023-03-01T07:18:45;10.43;;;5.25;;
70297;SDS011;57702;44.420;20.298;2023-03-01T07:21:12;12.13;;;6.78;;
70297;SDS011;57702;44.420;20.298;2023-03-01T07:23:39;17.02;;;7.20;;
70297;SDS011;57702;44.420;20.298;2023-03-01T07:26:05;11.80;;;7.50;;
70297;SDS011;57702;44.420;20.298;2023-03-01T07:28:31;60.42;;;23.00;;
70297;SDS011;57702;44.420;20.298;2023-03-01T07:31:04;37.97;;;18.73;;
70297;SDS011;57702;44.420;20.298;2023-03-01T07:33:30;64.43;;;23.63;;
70297;SDS011;57702;44.420;20.298;2023-03-01T07:35:57;27.70;;;13.07;;
70297;SDS011;57702;44.420;20.298;2023-03-01T07:38:24;21.85;;;9.13;;
70297;SDS011;57702;44.420;20.298;2023-03-01T07:40:50;15.68;;;10.27;;
70297;SDS011;57702;44.420;20.298;2023-03-01T07:43:16;15.40;;;8.50;;
70297;SDS011;57702;44.420;20.298;2023-03-01T07:45:42;18.75;;;8.93;;
70297;SDS011;57702;44.420;20.298;2023-03-01T07:48:09;26.67;;;8.18;;
70297;SDS011;57702;44.420;20.298;2023-03-01T07:50:35;26.25;;;9.57;;
70297;SDS011;57702;44.420;20.298;2023-03-01T07:53:01;22.88;;;10.50;;
70297;SDS011;57702;44.420;20.298;2023-03-01T07:55:27;27.88;;;7.75;;
70297;SDS011;57702;44.420;20.298;2023-03-01T07:57:54;17.60;;;10.85;;
70297;SDS011;57702;44.420;20.298;2023-03-01T08:00:20;17.85;;;6.72;;
70297;SDS011;57702;44.420;20.298;2023-03-01T08:02:46;19.60;;;9.43;;
70297;SDS011;57702;44.420;20.298;2023-03-01T08:05:12;13.90;;;7.05;;
70297;SDS011;57702;44.420;20.298;2023-03-01T08:07:39;13.73;;;6.30;;
70297;SDS011;57702;44.420;20.298;2023-03-01T08:10:05;17.90;;;7.32;;
70297;SDS011;57702;44.420;20.298;2023-03-01T08:12:32;5.88;;;5.28;;
70297;SDS011;57702;44.420;20.298;2023-03-01T08:14:58;16.55;;;6.70;;
70297;SDS011;57702;44.420;20.298;2023-03-01T08:17:24;12.25;;;6.78;;
70297;SDS011;57702;44.420;20.298;2023-03-01T08:19:50;32.75;;;10.77;;
70297;SDS011;57702;44.420;20.298;2023-03-01T08:22:16;20.52;;;8.57;;
70297;SDS011;57702;44.420;20.298;2023-03-01T08:24:43;17.02;;;7.57;;
70297;SDS011;57702;44.420;20.298;2023-03-01T08:27:09;14.70;;;8.90;;
70297;SDS011;57702;44.420;20.298;2023-03-01T08:29:37;15.00;;;9.25;;
70297;SDS011;57702;44.420;20.298;2023-03-01T08:32:03;10.00;;;4.35;;
70297;SDS011;57702;44.420;20.298;2023-03-01T08:34:29;13.88;;;6.63;;
70297;SDS011;57702;44.420;20.298;2023-03-01T08:36:56;24.40;;;10.23;;
70297;SDS011;57702;44.420;20.298;2023-03-01T08:39:23;16.67;;;9.60;;
70297;SDS011;57702;44.420;20.298;2023-03-01T08:41:49;14.55;;;7.35;;
70297;SDS011;57702;44.420;20.298;2023-03-01T08:44:16;25.33;;;11.52;;
70297;SDS011;57702;44.420;20.298;2023-03-01T08:46:42;19.08;;;7.10;;
70297;SDS011;57702;44.420;20.298;2023-03-01T08:49:10;29.98;;;8.63;;
70297;SDS011;57702;44.420;20.298;2023-03-01T08:51:37;18.13;;;9.00;;
70297;SDS011;57702;44.420;20.298;2023-03-01T08:54:04;20.90;;;7.35;;
70297;SDS011;57702;44.420;20.298;2023-03-01T08:56:31;12.90;;;6.55;;
70297;SDS011;57702;44.420;20.298;2023-03-01T08:58:57;22.88;;;9.57;;
70297;SDS011;57702;44.420;20.298;2023-03-01T09:01:23;42.08;;;9.95;;
70297;SDS011;57702;44.420;20.298;2023-03-01T09:03:49;16.48;;;9.40;;
70297;SDS011;57702;44.420;20.298;2023-03-01T09:06:15;9.88;;;7.15;;
70297;SDS011;57702;44.420;20.298;2023-03-01T09:08:43;27.45;;;11.48;;
70297;SDS011;57702;44.420;20.298;2023-03-01T09:11:10;26.83;;;10.48;;
70297;SDS011;57702;44.420;20.298;2023-03-01T09:13:37;22.45;;;9.73;;
70297;SDS011;57702;44.420;20.298;2023-03-01T09:16:04;14.77;;;9.85;;
70297;SDS011;57702;44.420;20.298;2023-03-01T09:18:31;33.55;;;13.10;;
70297;SDS011;57702;44.420;20.298;2023-03-01T09:21:04;49.13;;;15.52;;
70297;SDS011;57702;44.420;20.298;2023-03-01T09:23:34;30.45;;;13.80;;
70297;SDS011;57702;44.420;20.298;2023-03-01T09:26:02;29.48;;;13.55;;
70297;SDS011;57702;44.420;20.298;2023-03-01T09:28:28;49.88;;;11.95;;
70297;SDS011;57702;44.420;20.298;2023-03-01T09:30:57;20.92;;;9.55;;
70297;SDS011;57702;44.420;20.298;2023-03-01T09:33:24;26.20;;;10.38;;
70297;SDS011;57702;44.420;20.298;2023-03-01T09:35:55;19.58;;;8.95;;
70297;SDS011;57702;44.420;20.298;2023-03-01T09:38:21;32.35;;;9.77;;
70297;SDS011;57702;44.420;20.298;2023-03-01T09:40:48;35.72;;;12.90;;
70297;SDS011;57702;44.420;20.298;2023-03-01T09:45:44;23.58;;;9.68;;
70297;SDS011;57702;44.420;20.298;2023-03-01T09:48:22;34.42;;;10.50;;
70297;SDS011;57702;44.420;20.298;2023-03-01T09:50:49;11.13;;;7.47;;
70297;SDS011;57702;44.420;20.298;2023-03-01T09:53:18;14.73;;;8.85;;
70297;SDS011;57702;44.420;20.298;2023-03-01T09:55:45;44.90;;;9.50;;
70297;SDS011;57702;44.420;20.298;2023-03-01T09:58:34;21.00;;;9.15;;
70297;SDS011;57702;44.420;20.298;2023-03-01T10:04:01;25.27;;;10.05;;
70297;SDS011;57702;44.420;20.298;2023-03-01T10:06:29;29.70;;;9.20;;
70297;SDS011;57702;44.420;20.298;2023-03-01T10:08:56;31.15;;;10.90;;
70297;SDS011;57702;44.420;20.298;2023-03-01T10:11:24;29.33;;;9.48;;
70297;SDS011;57702;44.420;20.298;2023-03-01T10:18:55;31.10;;;10.27;;
70297;SDS011;57702;44.420;20.298;2023-03-01T10:21:21;33.78;;;11.98;;
70297;SDS011;57702;44.420;20.298;2023-03-01T10:23:51;19.23;;;11.60;;
70297;SDS011;57702;44.420;20.298;2023-03-01T10:31:20;34.72;;;10.63;;
70297;SDS011;57702;44.420;20.298;2023-03-01T10:33:52;13.07;;;8.07;;
70297;SDS011;57702;44.420;20.298;2023-03-01T10:36:20;25.23;;;10.10;;
70297;SDS011;57702;44.420;20.298;2023-03-01T10:38:48;15.02;;;9.13;;
70297;SDS011;57702;44.420;20.298;2023-03-01T10:41:17;29.23;;;9.55;;
70297;SDS011;57702;44.420;20.298;2023-03-01T10:43:50;20.00;;;8.40;;
70297;SDS011;57702;44.420;20.298;2023-03-01T10:46:33;26.55;;;13.05;;
70297;SDS011;57702;44.420;20.298;2023-03-01T10:51:25;21.35;;;9.98;;
70297;SDS011;57702;44.420;20.298;2023-03-01T10:53:52;21.13;;;10.80;;
70297;SDS011;57702;44.420;20.298;2023-03-01T10:56:18;15.43;;;7.75;;
70297;SDS011;57702;44.420;20.298;2023-03-01T11:01:38;19.88;;;10.38;;
70297;SDS011;57702;44.420;20.298;2023-03-01T11:06:31;20.63;;;7.53;;
70297;SDS011;57702;44.420;20.298;2023-03-01T11:08:57;18.42;;;8.90;;
70297;SDS011;57702;44.420;20.298;2023-03-01T11:11:38;33.67;;;9.48;;
70297;SDS011;57702;44.420;20.298;2023-03-01T11:14:06;21.55;;;9.52;;
70297;SDS011;57702;44.420;20.298;2023-03-01T11:16:34;25.35;;;10.25;;
70297;SDS011;57702;44.420;20.298;2023-03-01T11:19:14;21.08;;;7.82;;
70297;SDS011;57702;44.420;20.298;2023-03-01T11:21:51;20.05;;;9.48;;
70297;SDS011;57702;44.420;20.298;2023-03-01T11:24:19;35.83;;;9.13;;
70297;SDS011;57702;44.420;20.298;2023-03-01T11:26:47;30.67;;;15.13;;
70297;SDS011;57702;44.420;20.298;2023-03-01T11:31:48;29.25;;;11.57;;
70297;SDS011;57702;44.420;20.298;2023-03-01T11:34:17;37.40;;;13.68;;
70297;SDS011;57702;44.420;20.298;2023-03-01T11:36:53;16.05;;;10.65;;
70297;SDS011;57702;44.420;20.298;2023-03-01T11:42:15;34.65;;;12.60;;
70297;SDS011;57702;44.420;20.298;2023-03-01T11:44:43;33.15;;;12.27;;
70297;SDS011;57702;44.420;20.298;2023-03-01T11:49:41;25.88;;;8.45;;
70297;SDS011;57702;44.420;20.298;2023-03-01T11:52:21;34.28;;;12.60;;
70297;SDS011;57702;44.420;20.298;2023-03-01T12:10:24;18.05;;;7.18;;
70297;SDS011;57702;44.420;20.298;2023-03-01T12:15:42;21.88;;;9.50;;
70297;SDS011;57702;44.420;20.298;2023-03-01T12:21:02;10.95;;;6.55;;
70297;SDS011;57702;44.420;20.298;2023-03-01T12:28:53;29.55;;;12.63;;
70297;SDS011;57702;44.420;20.298;2023-03-01T12:37:11;28.73;;;11.63;;
70297;SDS011;57702;44.420;20.298;2023-03-01T12:47:25;32.53;;;11.45;;
70297;SDS011;57702;44.420;20.298;2023-03-01T12:50:28;35.13;;;10.93;;
70297;SDS011;57702;44.420;20.298;2023-03-01T13:00:52;30.80;;;9.85;;
70297;SDS011;57702;44.420;20.298;2023-03-01T13:03:25;20.65;;;8.18;;
70297;SDS011;57702;44.420;20.298;2023-03-01T13:06:07;33.25;;;9.95;;
70297;SDS011;57702;44.420;20.298;2023-03-01T13:08:36;29.40;;;8.82;;
70297;SDS011;57702;44.420;20.298;2023-03-01T13:11:06;25.92;;;9.10;;
70297;SDS011;57702;44.420;20.298;2023-03-01T13:13:33;19.52;;;7.70;;
70297;SDS011;57702;44.420;20.298;2023-03-01T13:16:19;26.40;;;10.73;;
70297;SDS011;57702;44.420;20.298;2023-03-01T13:18:45;29.33;;;11.00;;
70297;SDS011;57702;44.420;20.298;2023-03-01T13:21:11;37.38;;;15.05;;
70297;SDS011;57702;44.420;20.298;2023-03-01T13:23:38;38.05;;;13.75;;
70297;SDS011;57702;44.420;20.298;2023-03-01T13:30:58;35.67;;;15.13;;
70297;SDS011;57702;44.420;20.298;2023-03-01T13:35:54;21.10;;;12.23;;
70297;SDS011;57702;44.420;20.298;2023-03-01T13:38:44;25.42;;;10.50;;
70297;SDS011;57702;44.420;20.298;2023-03-01T13:41:12;19.13;;;10.13;;
70297;SDS011;57702;44.420;20.298;2023-03-01T13:43:40;32.58;;;9.73;;
70297;SDS011;57702;44.420;20.298;2023-03-01T13:48:36;31.50;;;11.52;;
70297;SDS011;57702;44.420;20.298;2023-03-01T13:51:07;25.17;;;10.90;;
70297;SDS011;57702;44.420;20.298;2023-03-01T13:53:35;36.53;;;12.30;;
70297;SDS011;57702;44.420;20.298;2023-03-01T13:56:19;32.00;;;10.75;;
70297;SDS011;57702;44.420;20.298;2023-03-01T13:58:50;24.98;;;8.23;;
70297;SDS011;57702;44.420;20.298;2023-03-01T14:03:47;23.88;;;10.57;;
70297;SDS011;57702;44.420;20.298;2023-03-01T14:06:24;24.77;;;12.15;;
70297;SDS011;57702;44.420;20.298;2023-03-01T14:09:00;34.42;;;10.57;;
70297;SDS011;57702;44.420;20.298;2023-03-01T14:19:17;20.77;;;9.40;;
70297;SDS011;57702;44.420;20.298;2023-03-01T14:21:45;20.63;;;10.15;;
70297;SDS011;57702;44.420;20.298;2023-03-01T14:24:18;16.77;;;9.70;;
70297;SDS011;57702;44.420;20.298;2023-03-01T14:26:46;22.85;;;8.68;;
70297;SDS011;57702;44.420;20.298;2023-03-01T14:29:25;20.77;;;11.98;;
70297;SDS011;57702;44.420;20.298;2023-03-01T14:31:52;26.63;;;11.10;;
70297;SDS011;57702;44.420;20.298;2023-03-01T14:34:19;30.52;;;9.57;;
70297;SDS011;57702;44.420;20.298;2023-03-01T14:36:46;34.03;;;10.57;;
70297;SDS011;57702;44.420;20.298;2023-03-01T14:39:19;39.97;;;12.23;;
70297;SDS011;57702;44.420;20.298;2023-03-01T14:41:46;32.60;;;13.77;;
70297;SDS011;57702;44.420;20.298;2023-03-01T14:44:14;23.27;;;14.10;;
70297;SDS011;57702;44.420;20.298;2023-03-01T14:46:43;39.35;;;14.60;;
70297;SDS011;57702;44.420;20.298;2023-03-01T14:49:13;40.45;;;14.35;;
70297;SDS011;57702;44.420;20.298;2023-03-01T14:51:41;44.58;;;13.65;;
70297;SDS011;57702;44.420;20.298;2023-03-01T14:54:51;32.47;;;10.70;;
70297;SDS011;57702;44.420;20.298;2023-03-01T14:56:58;13.80;;;9.60;;
70297;SDS011;57702;44.420;20.298;2023-03-01T14:59:25;38.63;;;15.30;;
70297;SDS011;57702;44.420;20.298;2023-03-01T15:01:53;40.83;;;15.30;;
70297;SDS011;57702;44.420;20.298;2023-03-01T15:04:20;42.40;;;13.20;;
70297;SDS011;57702;44.420;20.298;2023-03-01T15:06:50;16.42;;;7.22;;
70297;SDS011;57702;44.420;20.298;2023-03-01T15:09:17;23.70;;;10.50;;
70297;SDS011;57702;44.420;20.298;2023-03-01T15:11:43;29.63;;;11.07;;
70297;SDS011;57702;44.420;20.298;2023-03-01T15:16:54;17.48;;;8.48;;
70297;SDS011;57702;44.420;20.298;2023-03-01T15:19:21;26.38;;;9.73;;
70297;SDS011;57702;44.420;20.298;2023-03-01T15:21:49;27.55;;;12.32;;
70297;SDS011;57702;44.420;20.298;2023-03-01T15:24:17;36.38;;;11.75;;
70297;SDS011;57702;44.420;20.298;2023-03-01T15:31:57;29.13;;;11.20;;
70297;SDS011;57702;44.420;20.298;2023-03-01T15:34:27;31.38;;;10.13;;
70297;SDS011;57702;44.420;20.298;2023-03-01T15:36:56;24.30;;;9.35;;
70297;SDS011;57702;44.420;20.298;2023-03-01T15:42:02;19.98;;;9.45;;
70297;SDS011;57702;44.420;20.298;2023-03-01T15:44:33;38.13;;;12.13;;
70297;SDS011;57702;44.420;20.298;2023-03-01T15:47:00;15.70;;;7.82;;
70297;SDS011;57702;44.420;20.298;2023-03-01T15:51:56;22.48;;;10.30;;
70297;SDS011;57702;44.420;20.298;2023-03-01T15:54:23;31.33;;;11.65;;
70297;SDS011;57702;44.420;20.298;2023-03-01T15:56:50;22.70;;;9.82;;
70297;SDS011;57702;44.420;20.298;2023-03-01T15:59:17;17.52;;;8.73;;
70297;SDS011;57702;44.420;20.298;2023-03-01T16:01:43;35.33;;;12.48;;
70297;SDS011;57702;44.420;20.298;2023-03-01T16:04:10;21.90;;;10.57;;
70297;SDS011;57702;44.420;20.298;2023-03-01T16:06:41;19.10;;;9.93;;
70297;SDS011;57702;44.420;20.298;2023-03-01T16:09:07;26.23;;;11.15;;
70297;SDS011;57702;44.420;20.298;2023-03-01T16:11:35;31.20;;;12.82;;
70297;SDS011;57702;44.420;20.298;2023-03-01T16:14:02;26.25;;;9.35;;
70297;SDS011;57702;44.420;20.298;2023-03-01T16:16:28;26.08;;;7.57;;
70297;SDS011;57702;44.420;20.298;2023-03-01T16:18:54;18.95;;;7.13;;
70297;SDS011;57702;44.420;20.298;2023-03-01T16:21:24;22.10;;;8.05;;
70297;SDS011;57702;44.420;20.298;2023-03-01T16:23:51;24.52;;;8.90;;
70297;SDS011;57702;44.420;20.298;2023-03-01T16:26:17;14.93;;;7.05;;
70297;SDS011;57702;44.420;20.298;2023-03-01T16:28:44;15.02;;;7.40;;
70297;SDS011;57702;44.420;20.298;2023-03-01T16:31:11;18.98;;;8.32;;